Airfield :
LOGIN :

Register | Disclaimer

   EN    FR    IT 

 










Legend :    VFR   Marginal VFR   IFR   Intensive IFR   Very Intensive IFR
Visi :
Ceiling :
>= 8 km
>= 3000ft
5 to 8 km
1000 to 3000 ft
1500m to 5 km
500 to 1000 ft
800 to 1500m
200 to 500 ft
< 800m
< 200 ft
Symbols :   Thunderstorms  Fog  Heavy snow  Heavy precipitations  Wind > 20 kt
SIGMETs :     Misc.  Thunderstorms  Icing  Turbulence  Mountain Waves  Volcanic Ashes







- Airport Elevation : 656 ft
- IATA code : CMN


GMMN - Casablanca Mohammed V

CURRENT METAR :
  • 180700Z 14004KT 2400 BR SCT020 07/07 Q1016 BECMG 5000

EXPIRED METARs :
  • 180630Z 15004KT 5000 SCT020 07/07 Q1016 TEMPO 3000 BR
  • 180600Z 16004KT 090V180 7000 SCT020 08/08 Q1016 TEMPO 2000 BR
  • 180530Z 18005KT 3700 BR SCT020 09/08 Q1016 TEMPO 4000 BR
  • 180500Z 16004KT 9999 SCT020 10/09 Q1017 NOSIG

TAF TAF GMMN
Valid from the 18 at 06:00 until the 19 at 12:00 UTC


180500Z 1806/1912 VRB02KT 8000 SCT020
PROB30
TEMPO 1806/1809 4000 BR
BECMG 1809/1812 18008KT
BECMG 1820/1824 VRB02KT
TEMPO 1902/1908 6000
No reported NOTAMs for that airfield.



MET'MAP, your aeronautical weather chart ! - Copyright ORBIFLY December 2007 - Disclaimer

ORBIFLY MET'MAP TEAM :

Programming & Development : Alexandra Zaïnal
Concept & Development : Baudouin d'Aumeries
Co-Development & Prog : Marc-Olivier Méhu
Technical & hardware support : Manuel Goepfert

Contact : metmap@orbifly.com




SOURCES & CREDITS :

   NOAA